sensor_id;sensor_type;location;lat;lon;timestamp;temperature;humidity
81210;DHT22;70685;52.496;13.420;2023-09-19T00:00:37;18.60;76.20
81210;DHT22;70685;52.496;13.420;2023-09-19T00:03:03;18.50;76.60
81210;DHT22;70685;52.496;13.420;2023-09-19T00:05:33;18.60;76.60
81210;DHT22;70685;52.496;13.420;2023-09-19T00:08:00;18.70;75.80
81210;DHT22;70685;52.496;13.420;2023-09-19T00:10:27;18.70;75.80
81210;DHT22;70685;52.496;13.420;2023-09-19T00:12:58;18.60;76.20
81210;DHT22;70685;52.496;13.420;2023-09-19T00:15:31;18.50;76.50
81210;DHT22;70685;52.496;13.420;2023-09-19T00:18:02;18.50;76.30
81210;DHT22;70685;52.496;13.420;2023-09-19T00:20:30;18.50;76.30
81210;DHT22;70685;52.496;13.420;2023-09-19T00:22:55;18.40;76.30
81210;DHT22;70685;52.496;13.420;2023-09-19T00:25:21;18.30;76.60
81210;DHT22;70685;52.496;13.420;2023-09-19T00:27:47;18.40;76.50
81210;DHT22;70685;52.496;13.420;2023-09-19T00:30:15;18.40;76.70
81210;DHT22;70685;52.496;13.420;2023-09-19T00:32:42;18.40;76.50
81210;DHT22;70685;52.496;13.420;2023-09-19T00:35:08;18.40;76.60
81210;DHT22;70685;52.496;13.420;2023-09-19T00:37:37;18.30;76.60
81210;DHT22;70685;52.496;13.420;2023-09-19T00:40:08;18.20;76.90
81210;DHT22;70685;52.496;13.420;2023-09-19T00:42:42;18.20;77.00
81210;DHT22;70685;52.496;13.420;2023-09-19T00:45:09;18.20;77.00
81210;DHT22;70685;52.496;13.420;2023-09-19T00:47:42;18.20;76.90
81210;DHT22;70685;52.496;13.420;2023-09-19T00:50:10;18.10;76.90
81210;DHT22;70685;52.496;13.420;2023-09-19T00:52:41;18.10;76.80
81210;DHT22;70685;52.496;13.420;2023-09-19T00:55:11;18.20;76.60
81210;DHT22;70685;52.496;13.420;2023-09-19T00:57:41;18.20;76.50
81210;DHT22;70685;52.496;13.420;2023-09-19T01:00:09;18.20;76.60
81210;DHT22;70685;52.496;13.420;2023-09-19T01:02:42;18.20;76.30
81210;DHT22;70685;52.496;13.420;2023-09-19T01:05:13;18.20;76.30
81210;DHT22;70685;52.496;13.420;2023-09-19T01:07:39;18.20;76.70
81210;DHT22;70685;52.496;13.420;2023-09-19T01:10:13;18.10;76.80
81210;DHT22;70685;52.496;13.420;2023-09-19T01:31:59;18.30;75.80
81210;DHT22;70685;52.496;13.420;2023-09-19T01:34:27;18.40;75.40
81210;DHT22;70685;52.496;13.420;2023-09-19T01:36:52;18.50;75.00
81210;DHT22;70685;52.496;13.420;2023-09-19T01:39:19;18.40;75.10
81210;DHT22;70685;52.496;13.420;2023-09-19T01:44:22;18.50;74.40
81210;DHT22;70685;52.496;13.420;2023-09-19T01:46:49;18.60;74.30
81210;DHT22;70685;52.496;13.420;2023-09-19T01:49:27;18.60;74.30
81210;DHT22;70685;52.496;13.420;2023-09-19T01:52:05;18.60;74.20
81210;DHT22;70685;52.496;13.420;2023-09-19T01:54:41;18.70;73.50
81210;DHT22;70685;52.496;13.420;2023-09-19T01:57:30;18.70;73.80
81210;DHT22;70685;52.496;13.420;2023-09-19T02:00:06;18.70;73.70
81210;DHT22;70685;52.496;13.420;2023-09-19T02:02:40;18.60;73.90
81210;DHT22;70685;52.496;13.420;2023-09-19T02:05:07;18.70;73.80
81210;DHT22;70685;52.496;13.420;2023-09-19T02:07:35;18.70;74.00
81210;DHT22;70685;52.496;13.420;2023-09-19T02:10:04;18.70;73.60
81210;DHT22;70685;52.496;13.420;2023-09-19T02:12:33;18.60;73.90
81210;DHT22;70685;52.496;13.420;2023-09-19T02:15:01;18.50;74.10
81210;DHT22;70685;52.496;13.420;2023-09-19T02:17:32;18.40;74.20
81210;DHT22;70685;52.496;13.420;2023-09-19T02:19:58;18.60;73.90
81210;DHT22;70685;52.496;13.420;2023-09-19T02:22:24;18.50;73.80
81210;DHT22;70685;52.496;13.420;2023-09-19T02:24:53;18.60;73.80
81210;DHT22;70685;52.496;13.420;2023-09-19T02:27:19;18.50;73.80
81210;DHT22;70685;52.496;13.420;2023-09-19T02:29:45;18.40;74.00
81210;DHT22;70685;52.496;13.420;2023-09-19T02:32:13;18.40;74.30
81210;DHT22;70685;52.496;13.420;2023-09-19T02:34:38;18.40;74.50
81210;DHT22;70685;52.496;13.420;2023-09-19T02:37:10;18.40;74.40
81210;DHT22;70685;52.496;13.420;2023-09-19T02:39:35;18.40;74.30
81210;DHT22;70685;52.496;13.420;2023-09-19T02:42:01;18.30;74.50
81210;DHT22;70685;52.496;13.420;2023-09-19T02:44:29;18.30;74.60
81210;DHT22;70685;52.496;13.420;2023-09-19T02:46:55;18.40;74.50
81210;DHT22;70685;52.496;13.420;2023-09-19T02:49:23;18.40;74.20
81210;DHT22;70685;52.496;13.420;2023-09-19T02:51:51;18.50;74.10
81210;DHT22;70685;52.496;13.420;2023-09-19T02:54:17;18.40;74.20
81210;DHT22;70685;52.496;13.420;2023-09-19T02:56:43;18.40;74.20
81210;DHT22;70685;52.496;13.420;2023-09-19T02:59:09;18.40;74.10
81210;DHT22;70685;52.496;13.420;2023-09-19T03:01:42;18.40;74.30
81210;DHT22;70685;52.496;13.420;2023-09-19T03:04:10;18.50;73.80
81210;DHT22;70685;52.496;13.420;2023-09-19T03:06:37;18.60;73.50
81210;DHT22;70685;52.496;13.420;2023-09-19T03:09:04;18.60;73.30
81210;DHT22;70685;52.496;13.420;2023-09-19T03:11:39;18.50;73.40
81210;DHT22;70685;52.496;13.420;2023-09-19T03:14:05;18.60;73.30
81210;DHT22;70685;52.496;13.420;2023-09-19T03:16:31;18.70;72.90
81210;DHT22;70685;52.496;13.420;2023-09-19T03:18:58;18.70;72.70
81210;DHT22;70685;52.496;13.420;2023-09-19T03:21:27;18.70;72.50
81210;DHT22;70685;52.496;13.420;2023-09-19T03:23:55;18.60;72.50
81210;DHT22;70685;52.496;13.420;2023-09-19T03:26:20;18.60;72.50
81210;DHT22;70685;52.496;13.420;2023-09-19T03:28:46;18.70;71.80
81210;DHT22;70685;52.496;13.420;2023-09-19T03:31:14;18.70;71.70
81210;DHT22;70685;52.496;13.420;2023-09-19T03:33:40;18.70;71.40
81210;DHT22;70685;52.496;13.420;2023-09-19T03:36:05;18.70;71.20
81210;DHT22;70685;52.496;13.420;2023-09-19T03:38:32;18.70;71.20
81210;DHT22;70685;52.496;13.420;2023-09-19T03:41:00;18.70;71.30
81210;DHT22;70685;52.496;13.420;2023-09-19T03:43:26;18.70;71.20
81210;DHT22;70685;52.496;13.420;2023-09-19T03:45:53;18.70;70.70
81210;DHT22;70685;52.496;13.420;2023-09-19T03:48:22;18.70;70.30
81210;DHT22;70685;52.496;13.420;2023-09-19T03:50:48;18.80;70.30
81210;DHT22;70685;52.496;13.420;2023-09-19T03:53:14;18.70;70.00
81210;DHT22;70685;52.496;13.420;2023-09-19T03:55:39;18.80;70.00
81210;DHT22;70685;52.496;13.420;2023-09-19T03:58:05;18.80;69.60
81210;DHT22;70685;52.496;13.420;2023-09-19T04:00:33;18.80;69.40
81210;DHT22;70685;52.496;13.420;2023-09-19T04:02:59;18.80;69.40
81210;DHT22;70685;52.496;13.420;2023-09-19T04:05:27;18.70;69.40
81210;DHT22;70685;52.496;13.420;2023-09-19T04:07:53;18.80;68.70
81210;DHT22;70685;52.496;13.420;2023-09-19T04:10:23;18.70;68.80
81210;DHT22;70685;52.496;13.420;2023-09-19T04:12:53;18.60;68.80
81210;DHT22;70685;52.496;13.420;2023-09-19T04:15:21;18.60;68.60
81210;DHT22;70685;52.496;13.420;2023-09-19T04:17:52;18.70;67.70
81210;DHT22;70685;52.496;13.420;2023-09-19T04:20:18;18.60;67.70
81210;DHT22;70685;52.496;13.420;2023-09-19T04:22:50;18.60;67.10
81210;DHT22;70685;52.496;13.420;2023-09-19T04:25:16;18.60;66.90
81210;DHT22;70685;52.496;13.420;2023-09-19T04:27:42;18.50;66.90
81210;DHT22;70685;52.496;13.420;2023-09-19T04:30:08;18.50;66.40
81210;DHT22;70685;52.496;13.420;2023-09-19T04:32:37;18.50;66.40
81210;DHT22;70685;52.496;13.420;2023-09-19T04:35:07;18.60;66.30
81210;DHT22;70685;52.496;13.420;2023-09-19T04:37:40;18.50;66.40
81210;DHT22;70685;52.496;13.420;2023-09-19T04:40:08;18.50;66.20
81210;DHT22;70685;52.496;13.420;2023-09-19T04:42:43;18.50;66.50
81210;DHT22;70685;52.496;13.420;2023-09-19T04:45:09;18.40;66.10
81210;DHT22;70685;52.496;13.420;2023-09-19T04:47:36;18.40;66.20
81210;DHT22;70685;52.496;13.420;2023-09-19T04:50:07;18.40;66.00
81210;DHT22;70685;52.496;13.420;2023-09-19T04:52:33;18.40;66.50
81210;DHT22;70685;52.496;13.420;2023-09-19T04:54:59;18.30;66.50
81210;DHT22;70685;52.496;13.420;2023-09-19T04:57:24;18.30;66.30
81210;DHT22;70685;52.496;13.420;2023-09-19T04:59:52;18.40;66.30
81210;DHT22;70685;52.496;13.420;2023-09-19T05:02:19;18.30;66.40
81210;DHT22;70685;52.496;13.420;2023-09-19T05:04:44;18.30;66.10
81210;DHT22;70685;52.496;13.420;2023-09-19T05:07:13;18.30;66.40
81210;DHT22;70685;52.496;13.420;2023-09-19T05:09:41;18.30;66.40
81210;DHT22;70685;52.496;13.420;2023-09-19T05:12:07;18.30;66.50
81210;DHT22;70685;52.496;13.420;2023-09-19T05:14:36;18.30;66.30
81210;DHT22;70685;52.496;13.420;2023-09-19T05:17:01;18.30;65.70
81210;DHT22;70685;52.496;13.420;2023-09-19T05:19:29;18.40;65.30
81210;DHT22;70685;52.496;13.420;2023-09-19T05:21:55;18.30;65.50
81210;DHT22;70685;52.496;13.420;2023-09-19T05:24:23;18.30;65.60
81210;DHT22;70685;52.496;13.420;2023-09-19T05:26:49;18.40;65.40
81210;DHT22;70685;52.496;13.420;2023-09-19T05:29:14;18.30;65.30
81210;DHT22;70685;52.496;13.420;2023-09-19T05:31:40;18.30;65.50
81210;DHT22;70685;52.496;13.420;2023-09-19T05:34:08;18.30;65.40
81210;DHT22;70685;52.496;13.420;2023-09-19T05:36:35;18.30;65.50
81210;DHT22;70685;52.496;13.420;2023-09-19T05:39:03;18.30;65.50
81210;DHT22;70685;52.496;13.420;2023-09-19T05:41:32;18.30;65.40
81210;DHT22;70685;52.496;13.420;2023-09-19T05:43:57;18.20;65.70
81210;DHT22;70685;52.496;13.420;2023-09-19T05:46:25;18.30;65.60
81210;DHT22;70685;52.496;13.420;2023-09-19T05:48:55;18.40;65.30
81210;DHT22;70685;52.496;13.420;2023-09-19T05:51:22;18.40;65.10
81210;DHT22;70685;52.496;13.420;2023-09-19T05:53:53;18.50;64.70
81210;DHT22;70685;52.496;13.420;2023-09-19T05:56:23;18.50;64.80
81210;DHT22;70685;52.496;13.420;2023-09-19T05:58:49;18.50;64.50
81210;DHT22;70685;52.496;13.420;2023-09-19T06:01:17;18.50;64.60
81210;DHT22;70685;52.496;13.420;2023-09-19T06:03:45;18.50;64.60
81210;DHT22;70685;52.496;13.420;2023-09-19T06:06:14;18.40;64.80
81210;DHT22;70685;52.496;13.420;2023-09-19T06:08:39;18.40;64.70
81210;DHT22;70685;52.496;13.420;2023-09-19T06:11:05;18.40;64.70
81210;DHT22;70685;52.496;13.420;2023-09-19T06:13:37;18.50;64.40
81210;DHT22;70685;52.496;13.420;2023-09-19T06:16:04;18.50;64.50
81210;DHT22;70685;52.496;13.420;2023-09-19T06:18:31;18.50;64.30
81210;DHT22;70685;52.496;13.420;2023-09-19T06:21:01;18.60;64.00
81210;DHT22;70685;52.496;13.420;2023-09-19T06:23:30;18.60;63.90
81210;DHT22;70685;52.496;13.420;2023-09-19T06:25:56;18.60;63.90
81210;DHT22;70685;52.496;13.420;2023-09-19T06:28:23;18.60;64.10
81210;DHT22;70685;52.496;13.420;2023-09-19T06:30:51;18.70;63.70
81210;DHT22;70685;52.496;13.420;2023-09-19T06:33:22;18.70;63.50
81210;DHT22;70685;52.496;13.420;2023-09-19T06:35:47;18.70;64.30
81210;DHT22;70685;52.496;13.420;2023-09-19T06:38:15;18.70;63.50
81210;DHT22;70685;52.496;13.420;2023-09-19T06:40:44;18.80;63.30
81210;DHT22;70685;52.496;13.420;2023-09-19T06:43:10;18.90;63.30
81210;DHT22;70685;52.496;13.420;2023-09-19T06:45:42;19.00;62.70
81210;DHT22;70685;52.496;13.420;2023-09-19T06:48:08;19.10;62.20
81210;DHT22;70685;52.496;13.420;2023-09-19T06:50:37;19.10;62.20
81210;DHT22;70685;52.496;13.420;2023-09-19T06:53:09;19.20;61.80
81210;DHT22;70685;52.496;13.420;2023-09-19T06:55:35;19.30;61.60
81210;DHT22;70685;52.496;13.420;2023-09-19T06:58:04;19.40;61.60
81210;DHT22;70685;52.496;13.420;2023-09-19T07:00:31;19.50;60.80
81210;DHT22;70685;52.496;13.420;2023-09-19T07:03:01;20.10;59.90
81210;DHT22;70685;52.496;13.420;2023-09-19T07:05:30;21.50;55.20
81210;DHT22;70685;52.496;13.420;2023-09-19T07:07:56;23.10;50.50
81210;DHT22;70685;52.496;13.420;2023-09-19T07:10:27;24.20;47.30
81210;DHT22;70685;52.496;13.420;2023-09-19T07:13:00;25.00;44.90
81210;DHT22;70685;52.496;13.420;2023-09-19T07:15:27;25.30;44.30
81210;DHT22;70685;52.496;13.420;2023-09-19T07:17:55;25.70;43.00
81210;DHT22;70685;52.496;13.420;2023-09-19T07:20:24;25.80;42.90
81210;DHT22;70685;52.496;13.420;2023-09-19T07:22:54;25.70;42.50
81210;DHT22;70685;52.496;13.420;2023-09-19T07:25:21;25.20;43.10
81210;DHT22;70685;52.496;13.420;2023-09-19T07:27:48;24.80;44.20
81210;DHT22;70685;52.496;13.420;2023-09-19T07:30:18;24.60;44.80
81210;DHT22;70685;52.496;13.420;2023-09-19T07:32:44;25.10;43.50
81210;DHT22;70685;52.496;13.420;2023-09-19T07:35:14;24.60;43.80
81210;DHT22;70685;52.496;13.420;2023-09-19T07:37:40;23.80;45.30
81210;DHT22;70685;52.496;13.420;2023-09-19T07:40:06;23.30;47.20
81210;DHT22;70685;52.496;13.420;2023-09-19T07:42:38;23.40;47.40
81210;DHT22;70685;52.496;13.420;2023-09-19T07:45:07;24.20;45.30
81210;DHT22;70685;52.496;13.420;2023-09-19T07:47:33;24.90;43.50
81210;DHT22;70685;52.496;13.420;2023-09-19T07:50:04;24.60;43.70
81210;DHT22;70685;52.496;13.420;2023-09-19T07:52:32;24.30;44.80
81210;DHT22;70685;52.496;13.420;2023-09-19T07:54:59;23.80;45.20
81210;DHT22;70685;52.496;13.420;2023-09-19T07:57:27;23.70;45.80
81210;DHT22;70685;52.496;13.420;2023-09-19T07:59:54;24.20;43.90
81210;DHT22;70685;52.496;13.420;2023-09-19T08:02:22;24.20;43.70
81210;DHT22;70685;52.496;13.420;2023-09-19T08:04:50;24.20;43.60
81210;DHT22;70685;52.496;13.420;2023-09-19T08:07:19;24.00;44.00
81210;DHT22;70685;52.496;13.420;2023-09-19T08:09:45;23.80;44.60
81210;DHT22;70685;52.496;13.420;2023-09-19T08:12:14;24.20;43.80
81210;DHT22;70685;52.496;13.420;2023-09-19T08:14:45;24.10;43.60
81210;DHT22;70685;52.496;13.420;2023-09-19T08:17:12;23.70;44.50
81210;DHT22;70685;52.496;13.420;2023-09-19T08:19:38;23.80;43.40
81210;DHT22;70685;52.496;13.420;2023-09-19T08:22:10;23.60;43.50
81210;DHT22;70685;52.496;13.420;2023-09-19T08:24:36;23.30;44.70
81210;DHT22;70685;52.496;13.420;2023-09-19T08:27:04;23.10;44.90
81210;DHT22;70685;52.496;13.420;2023-09-19T08:29:32;22.90;44.60
81210;DHT22;70685;52.496;13.420;2023-09-19T08:31:58;22.50;45.20
81210;DHT22;70685;52.496;13.420;2023-09-19T08:34:24;22.40;45.90
81210;DHT22;70685;52.496;13.420;2023-09-19T08:36:53;22.60;46.00
81210;DHT22;70685;52.496;13.420;2023-09-19T08:39:25;22.70;45.90
81210;DHT22;70685;52.496;13.420;2023-09-19T08:41:58;22.60;45.60
81210;DHT22;70685;52.496;13.420;2023-09-19T08:44:27;22.90;44.60
81210;DHT22;70685;52.496;13.420;2023-09-19T08:47:10;23.70;42.70
81210;DHT22;70685;52.496;13.420;2023-09-19T08:52:24;24.00;42.20
81210;DHT22;70685;52.496;13.420;2023-09-19T08:54:58;24.60;41.20
81210;DHT22;70685;52.496;13.420;2023-09-19T08:57:28;25.70;39.10
81210;DHT22;70685;52.496;13.420;2023-09-19T08:59:57;25.90;38.30
81210;DHT22;70685;52.496;13.420;2023-09-19T09:02:23;26.10;37.70
81210;DHT22;70685;52.496;13.420;2023-09-19T09:04:51;26.30;37.30
81210;DHT22;70685;52.496;13.420;2023-09-19T09:07:24;26.20;37.40
81210;DHT22;70685;52.496;13.420;2023-09-19T09:09:56;25.80;37.50
81210;DHT22;70685;52.496;13.420;2023-09-19T09:12:22;25.40;38.40
81210;DHT22;70685;52.496;13.420;2023-09-19T09:14:48;25.90;37.80
81210;DHT22;70685;52.496;13.420;2023-09-19T09:17:18;26.50;36.40
81210;DHT22;70685;52.496;13.420;2023-09-19T09:19:46;26.90;35.80
81210;DHT22;70685;52.496;13.420;2023-09-19T09:22:14;27.00;35.40
81210;DHT22;70685;52.496;13.420;2023-09-19T09:24:52;27.40;35.20
81210;DHT22;70685;52.496;13.420;2023-09-19T09:27:23;27.90;33.90
81210;DHT22;70685;52.496;13.420;2023-09-19T09:29:51;27.80;33.70
81210;DHT22;70685;52.496;13.420;2023-09-19T09:34:53;27.00;34.60
81210;DHT22;70685;52.496;13.420;2023-09-19T09:37:24;26.70;34.80
81210;DHT22;70685;52.496;13.420;2023-09-19T09:39:58;26.10;35.90
81210;DHT22;70685;52.496;13.420;2023-09-19T09:42:42;26.10;36.30
81210;DHT22;70685;52.496;13.420;2023-09-19T09:45:16;26.60;35.20
81210;DHT22;70685;52.496;13.420;2023-09-19T09:47:47;27.20;34.40
81210;DHT22;70685;52.496;13.420;2023-09-19T09:50:31;27.40;33.80
81210;DHT22;70685;52.496;13.420;2023-09-19T09:53:29;27.20;33.10
81210;DHT22;70685;52.496;13.420;2023-09-19T09:56:03;26.90;33.70
81210;DHT22;70685;52.496;13.420;2023-09-19T09:58:37;26.80;34.00
81210;DHT22;70685;52.496;13.420;2023-09-19T10:01:06;27.10;33.50
81210;DHT22;70685;52.496;13.420;2023-09-19T10:03:42;27.50;32.90
81210;DHT22;70685;52.496;13.420;2023-09-19T10:06:15;28.10;31.30
81210;DHT22;70685;52.496;13.420;2023-09-19T10:09:08;28.50;30.90
81210;DHT22;70685;52.496;13.420;2023-09-19T10:11:48;28.80;29.90
81210;DHT22;70685;52.496;13.420;2023-09-19T10:14:27;28.70;29.50
81210;DHT22;70685;52.496;13.420;2023-09-19T10:16:58;28.30;30.10
81210;DHT22;70685;52.496;13.420;2023-09-19T10:19:37;28.30;30.30
81210;DHT22;70685;52.496;13.420;2023-09-19T10:22:10;28.00;31.10
81210;DHT22;70685;52.496;13.420;2023-09-19T10:24:38;28.10;30.60
81210;DHT22;70685;52.496;13.420;2023-09-19T10:27:07;28.40;30.20
81210;DHT22;70685;52.496;13.420;2023-09-19T10:29:36;28.20;30.20
81210;DHT22;70685;52.496;13.420;2023-09-19T10:32:09;28.20;30.50
81210;DHT22;70685;52.496;13.420;2023-09-19T10:34:39;28.30;30.30
81210;DHT22;70685;52.496;13.420;2023-09-19T10:37:07;28.30;29.80
81210;DHT22;70685;52.496;13.420;2023-09-19T10:39:39;27.70;30.00
81210;DHT22;70685;52.496;13.420;2023-09-19T10:42:06;26.90;31.30
81210;DHT22;70685;52.496;13.420;2023-09-19T10:44:38;26.50;32.00
81210;DHT22;70685;52.496;13.420;2023-09-19T10:47:08;26.30;32.10
81210;DHT22;70685;52.496;13.420;2023-09-19T10:49:34;26.00;32.80
81210;DHT22;70685;52.496;13.420;2023-09-19T10:52:06;25.50;33.40
81210;DHT22;70685;52.496;13.420;2023-09-19T10:54:34;25.20;33.90
81210;DHT22;70685;52.496;13.420;2023-09-19T10:57:02;24.80;33.90
81210;DHT22;70685;52.496;13.420;2023-09-19T10:59:34;24.90;33.30
81210;DHT22;70685;52.496;13.420;2023-09-19T11:02:00;25.40;33.20
81210;DHT22;70685;52.496;13.420;2023-09-19T11:04:43;25.70;31.70
81210;DHT22;70685;52.496;13.420;2023-09-19T11:07:14;25.30;32.30
81210;DHT22;70685;52.496;13.420;2023-09-19T11:09:50;24.70;32.90
81210;DHT22;70685;52.496;13.420;2023-09-19T11:14:57;25.10;32.90
81210;DHT22;70685;52.496;13.420;2023-09-19T11:17:39;25.10;32.90
81210;DHT22;70685;52.496;13.420;2023-09-19T11:30:32;25.30;31.70
81210;DHT22;70685;52.496;13.420;2023-09-19T11:33:20;25.50;31.90
81210;DHT22;70685;52.496;13.420;2023-09-19T11:36:07;25.70;31.40
81210;DHT22;70685;52.496;13.420;2023-09-19T11:46:13;25.40;32.10
81210;DHT22;70685;52.496;13.420;2023-09-19T11:48:42;25.40;32.10
81210;DHT22;70685;52.496;13.420;2023-09-19T11:51:11;25.40;32.10
81210;DHT22;70685;52.496;13.420;2023-09-19T11:53:45;25.40;32.80
81210;DHT22;70685;52.496;13.420;2023-09-19T11:56:18;25.50;32.70
81210;DHT22;70685;52.496;13.420;2023-09-19T11:58:49;25.90;32.10
81210;DHT22;70685;52.496;13.420;2023-09-19T12:01:21;25.90;31.30
81210;DHT22;70685;52.496;13.420;2023-09-19T12:03:53;25.60;32.20
81210;DHT22;70685;52.496;13.420;2023-09-19T12:06:20;25.40;31.30
81210;DHT22;70685;52.496;13.420;2023-09-19T12:08:49;25.20;31.40
81210;DHT22;70685;52.496;13.420;2023-09-19T12:11:19;25.00;31.70
81210;DHT22;70685;52.496;13.420;2023-09-19T12:13:49;24.80;32.20
81210;DHT22;70685;52.496;13.420;2023-09-19T12:16:19;24.80;32.40
81210;DHT22;70685;52.496;13.420;2023-09-19T12:18:49;24.90;32.20
81210;DHT22;70685;52.496;13.420;2023-09-19T12:21:31;24.80;32.50
81210;DHT22;70685;52.496;13.420;2023-09-19T12:24:06;24.80;32.20
81210;DHT22;70685;52.496;13.420;2023-09-19T12:26:41;24.80;31.90
81210;DHT22;70685;52.496;13.420;2023-09-19T12:29:19;24.80;32.20
81210;DHT22;70685;52.496;13.420;2023-09-19T12:31:54;24.80;31.80
81210;DHT22;70685;52.496;13.420;2023-09-19T12:34:29;24.90;31.80
81210;DHT22;70685;52.496;13.420;2023-09-19T12:37:09;25.00;31.10
81210;DHT22;70685;52.496;13.420;2023-09-19T12:39:43;25.10;30.80
81210;DHT22;70685;52.496;13.420;2023-09-19T12:42:17;25.20;30.70
81210;DHT22;70685;52.496;13.420;2023-09-19T12:44:45;25.20;30.40
81210;DHT22;70685;52.496;13.420;2023-09-19T12:47:17;25.20;30.60
81210;DHT22;70685;52.496;13.420;2023-09-19T12:50:17;25.50;30.70
81210;DHT22;70685;52.496;13.420;2023-09-19T12:52:55;25.60;30.40
81210;DHT22;70685;52.496;13.420;2023-09-19T12:55:27;25.40;30.60
81210;DHT22;70685;52.496;13.420;2023-09-19T12:58:01;25.40;30.80
81210;DHT22;70685;52.496;13.420;2023-09-19T13:00:46;25.50;30.90
81210;DHT22;70685;52.496;13.420;2023-09-19T13:06:35;25.60;30.80
81210;DHT22;70685;52.496;13.420;2023-09-19T13:09:22;25.50;30.90
81210;DHT22;70685;52.496;13.420;2023-09-19T13:11:53;25.20;31.40
81210;DHT22;70685;52.496;13.420;2023-09-19T13:14:26;24.80;31.80
81210;DHT22;70685;52.496;13.420;2023-09-19T13:19:44;24.30;33.40
81210;DHT22;70685;52.496;13.420;2023-09-19T13:22:42;24.00;33.00
81210;DHT22;70685;52.496;13.420;2023-09-19T13:25:16;23.80;33.70
81210;DHT22;70685;52.496;13.420;2023-09-19T13:30:17;23.60;34.00
81210;DHT22;70685;52.496;13.420;2023-09-19T13:32:43;23.70;34.00
81210;DHT22;70685;52.496;13.420;2023-09-19T13:35:13;23.80;33.80
81210;DHT22;70685;52.496;13.420;2023-09-19T13:37:42;23.90;33.90
81210;DHT22;70685;52.496;13.420;2023-09-19T13:40:12;24.00;33.80
81210;DHT22;70685;52.496;13.420;2023-09-19T13:42:40;24.00;33.50
81210;DHT22;70685;52.496;13.420;2023-09-19T13:45:09;23.90;33.90
81210;DHT22;70685;52.496;13.420;2023-09-19T13:47:38;23.80;34.00
81210;DHT22;70685;52.496;13.420;2023-09-19T13:50:04;23.70;34.30
81210;DHT22;70685;52.496;13.420;2023-09-19T13:52:31;23.50;34.40
81210;DHT22;70685;52.496;13.420;2023-09-19T13:54:57;23.60;34.80
81210;DHT22;70685;52.496;13.420;2023-09-19T13:57:26;23.60;34.30
81210;DHT22;70685;52.496;13.420;2023-09-19T13:59:53;23.60;34.40
81210;DHT22;70685;52.496;13.420;2023-09-19T14:02:22;23.40;34.60
81210;DHT22;70685;52.496;13.420;2023-09-19T14:04:51;23.40;34.80
81210;DHT22;70685;52.496;13.420;2023-09-19T14:07:21;23.60;34.70
81210;DHT22;70685;52.496;13.420;2023-09-19T14:09:49;23.80;34.50
81210;DHT22;70685;52.496;13.420;2023-09-19T14:12:17;24.10;34.30
81210;DHT22;70685;52.496;13.420;2023-09-19T14:14:43;24.30;33.80
81210;DHT22;70685;52.496;13.420;2023-09-19T14:17:10;24.40;33.30
81210;DHT22;70685;52.496;13.420;2023-09-19T14:19:36;24.40;34.40
81210;DHT22;70685;52.496;13.420;2023-09-19T14:22:02;24.30;33.20
81210;DHT22;70685;52.496;13.420;2023-09-19T14:24:33;24.10;33.40
81210;DHT22;70685;52.496;13.420;2023-09-19T14:26:58;24.00;33.80
81210;DHT22;70685;52.496;13.420;2023-09-19T14:29:25;23.90;34.10
81210;DHT22;70685;52.496;13.420;2023-09-19T14:31:50;23.80;34.40
81210;DHT22;70685;52.496;13.420;2023-09-19T14:34:22;23.80;34.40
81210;DHT22;70685;52.496;13.420;2023-09-19T14:36:47;23.70;34.60
81210;DHT22;70685;52.496;13.420;2023-09-19T14:39:14;23.70;34.90
81210;DHT22;70685;52.496;13.420;2023-09-19T14:41:42;23.60;34.90
81210;DHT22;70685;52.496;13.420;2023-09-19T14:44:07;23.60;34.90
81210;DHT22;70685;52.496;13.420;2023-09-19T14:46:35;23.60;35.00
81210;DHT22;70685;52.496;13.420;2023-09-19T14:49:01;23.40;35.50
81210;DHT22;70685;52.496;13.420;2023-09-19T14:51:30;23.30;35.50
81210;DHT22;70685;52.496;13.420;2023-09-19T14:53:58;23.20;35.90
81210;DHT22;70685;52.496;13.420;2023-09-19T14:56:29;23.10;35.50
81210;DHT22;70685;52.496;13.420;2023-09-19T14:58:56;23.00;35.50
81210;DHT22;70685;52.496;13.420;2023-09-19T15:01:24;22.90;36.00
81210;DHT22;70685;52.496;13.420;2023-09-19T15:03:50;22.80;36.00
81210;DHT22;70685;52.496;13.420;2023-09-19T15:06:15;22.70;35.90
81210;DHT22;70685;52.496;13.420;2023-09-19T15:08:44;22.70;35.90
81210;DHT22;70685;52.496;13.420;2023-09-19T15:11:14;22.70;35.90
81210;DHT22;70685;52.496;13.420;2023-09-19T15:13:43;22.70;35.90
81210;DHT22;70685;52.496;13.420;2023-09-19T15:16:11;22.60;36.30
81210;DHT22;70685;52.496;13.420;2023-09-19T15:18:42;22.60;36.40
81210;DHT22;70685;52.496;13.420;2023-09-19T15:21:09;22.50;36.20
81210;DHT22;70685;52.496;13.420;2023-09-19T15:23:36;22.40;36.70
81210;DHT22;70685;52.496;13.420;2023-09-19T15:26:05;22.40;36.80
81210;DHT22;70685;52.496;13.420;2023-09-19T15:28:33;22.40;36.70
81210;DHT22;70685;52.496;13.420;2023-09-19T15:33:25;22.40;36.80
81210;DHT22;70685;52.496;13.420;2023-09-19T15:36:06;22.30;36.80
81210;DHT22;70685;52.496;13.420;2023-09-19T15:38:59;22.30;36.80
81210;DHT22;70685;52.496;13.420;2023-09-19T15:41:27;22.30;36.90
81210;DHT22;70685;52.496;13.420;2023-09-19T15:43:54;22.30;37.00
81210;DHT22;70685;52.496;13.420;2023-09-19T15:46:20;22.30;37.10
81210;DHT22;70685;52.496;13.420;2023-09-19T15:48:51;22.30;37.30
81210;DHT22;70685;52.496;13.420;2023-09-19T15:51:19;22.30;37.60
81210;DHT22;70685;52.496;13.420;2023-09-19T15:53:47;22.30;37.80
81210;DHT22;70685;52.496;13.420;2023-09-19T15:56:16;22.30;38.00
81210;DHT22;70685;52.496;13.420;2023-09-19T15:58:47;22.40;37.90
81210;DHT22;70685;52.496;13.420;2023-09-19T16:01:13;22.50;37.80
81210;DHT22;70685;52.496;13.420;2023-09-19T16:03:49;22.50;37.50
81210;DHT22;70685;52.496;13.420;2023-09-19T16:06:21;22.40;37.50
81210;DHT22;70685;52.496;13.420;2023-09-19T16:08:50;22.40;37.90
81210;DHT22;70685;52.496;13.420;2023-09-19T16:11:18;22.20;38.20
81210;DHT22;70685;52.496;13.420;2023-09-19T16:13:50;22.10;38.50
81210;DHT22;70685;52.496;13.420;2023-09-19T16:16:18;22.00;38.80
81210;DHT22;70685;52.496;13.420;2023-09-19T16:18:54;22.00;38.90
81210;DHT22;70685;52.496;13.420;2023-09-19T16:21:23;21.90;39.00
81210;DHT22;70685;52.496;13.420;2023-09-19T16:23:50;21.80;39.10
81210;DHT22;70685;52.496;13.420;2023-09-19T16:26:17;21.70;39.50
81210;DHT22;70685;52.496;13.420;2023-09-19T16:28:50;21.60;39.90